createdAt,value
2023-03-26T00:02:05.641Z,90779.83
2023-03-26T00:04:34.713Z,90777.44
2023-03-26T00:07:03.419Z,90779.46
2023-03-26T00:09:31.544Z,90770.17
2023-03-26T00:11:59.831Z,90766.79
2023-03-26T00:14:29.311Z,90765.59
2023-03-26T00:16:57.562Z,90760.06
2023-03-26T00:19:25.777Z,90758.02
2023-03-26T00:21:53.921Z,90765.23
2023-03-26T00:24:29.537Z,90766.15
2023-03-26T00:26:57.852Z,90765.80
2023-03-26T00:29:28.224Z,90772.71
2023-03-26T00:31:57.093Z,90768.89
2023-03-26T00:34:26.821Z,90768.36
2023-03-26T00:36:55.307Z,90770.32
2023-03-26T00:39:24.282Z,90763.66
2023-03-26T00:41:54.829Z,90761.77
2023-03-26T00:44:23.283Z,90753.93
2023-03-26T00:46:51.459Z,90756.58
2023-03-26T00:49:19.636Z,90756.37
2023-03-26T00:51:47.890Z,90758.30
2023-03-26T00:54:16.144Z,90750.02
2023-03-26T00:56:45.411Z,90747.16
2023-03-26T00:59:13.775Z,90751.75
2023-03-26T01:01:42.430Z,90746.82
2023-03-26T01:04:24.360Z,90742.99
2023-03-26T01:06:55.770Z,90746.70
2023-03-26T01:09:33.114Z,90757.89
2023-03-26T01:12:04.796Z,90765.60
2023-03-26T01:14:33.173Z,90762.70
2023-03-26T01:17:03.843Z,90753.80
2023-03-26T01:19:56.593Z,90749.20
2023-03-26T01:22:27.491Z,90747.87
2023-03-26T01:24:59.020Z,90750.19
2023-03-26T01:27:50.228Z,90753.94
2023-03-26T01:30:27.897Z,90750.98
2023-03-26T01:33:30.149Z,90743.77
2023-03-26T01:36:06.283Z,90746.23
2023-03-26T01:38:52.177Z,90745.55
2023-03-26T01:41:36.902Z,90740.27
2023-03-26T01:44:34.497Z,90737.76
2023-03-26T01:47:05.004Z,90739.98
2023-03-26T01:49:33.297Z,90743.25
2023-03-26T01:52:02.419Z,90742.96
2023-03-26T01:54:32.072Z,90744.94
2023-03-26T01:57:15.979Z,90746.10
2023-03-26T02:00:11.481Z,90739.19
2023-03-26T02:03:06.102Z,90746.90
2023-03-26T02:05:42.658Z,90748.33
2023-03-26T02:08:23.587Z,90748.41
2023-03-26T02:11:02.139Z,90748.05
2023-03-26T02:13:31.097Z,90750.02
2023-03-26T02:16:03.531Z,90747.64
2023-03-26T02:18:39.087Z,90751.77
2023-03-26T02:21:14.417Z,90753.37
2023-03-26T02:23:47.075Z,90754.60
2023-03-26T02:26:17.622Z,90754.90
2023-03-26T02:29:08.958Z,90755.02
2023-03-26T02:31:38.172Z,90756.35
2023-03-26T02:34:06.652Z,90752.86
2023-03-26T02:36:36.968Z,90753.23
2023-03-26T02:39:06.051Z,90757.33
2023-03-26T02:41:38.365Z,90759.88
2023-03-26T02:44:11.175Z,90764.53
2023-03-26T02:47:08.453Z,90770.91
2023-03-26T02:49:43.334Z,90775.98
2023-03-26T02:52:17.239Z,90776.27
2023-03-26T02:54:45.753Z,90777.62
2023-03-26T02:57:25.569Z,90782.25
2023-03-26T02:59:59.480Z,90787.91
2023-03-26T03:02:40.175Z,90799.37
2023-03-26T03:05:27.221Z,90801.53
2023-03-26T03:08:19.658Z,90804.86
2023-03-26T03:11:11.562Z,90810.36
2023-03-26T03:13:44.780Z,90817.30
2023-03-26T03:16:14.449Z,90821.17
2023-03-26T03:18:42.634Z,90814.36
2023-03-26T03:21:10.983Z,90816.77
2023-03-26T03:23:39.267Z,90814.85
2023-03-26T03:26:15.789Z,90817.34
2023-03-26T03:28:46.965Z,90819.72
2023-03-26T03:31:17.891Z,90813.41
2023-03-26T03:33:46.715Z,90811.48
2023-03-26T03:36:22.166Z,90810.73
2023-03-26T03:39:02.745Z,90810.12
2023-03-26T03:41:31.345Z,90808.79
2023-03-26T03:44:01.779Z,90810.27
2023-03-26T03:46:32.209Z,90809.74
2023-03-26T03:49:00.613Z,90808.07
2023-03-26T03:51:33.198Z,90807.43
2023-03-26T03:54:03.860Z,90805.17
2023-03-26T03:56:49.042Z,90808.06
2023-03-26T03:59:29.123Z,90809.09
2023-03-26T04:01:58.265Z,90811.32
2023-03-26T04:04:42.284Z,90813.05
2023-03-26T04:07:13.250Z,90818.31
2023-03-26T04:10:02.978Z,90811.95
2023-03-26T04:12:42.035Z,90809.04
2023-03-26T04:15:14.925Z,90813.40
2023-03-26T04:17:45.529Z,90818.42
2023-03-26T04:20:16.135Z,90812.88
2023-03-26T04:22:46.050Z,90813.70
2023-03-26T04:25:15.790Z,90808.84
2023-03-26T04:28:08.684Z,90808.18
2023-03-26T04:31:03.855Z,90809.30
2023-03-26T04:33:39.895Z,90814.44
2023-03-26T04:36:09.659Z,90817.98
2023-03-26T04:38:42.315Z,90818.95
2023-03-26T04:41:15.463Z,90823.28
2023-03-26T04:43:50.889Z,90821.66
2023-03-26T04:46:37.742Z,90816.35
2023-03-26T04:49:11.891Z,90820.39
2023-03-26T04:51:46.741Z,90818.01
2023-03-26T04:54:33.279Z,90822.02
2023-03-26T04:57:20.623Z,90823.16
2023-03-26T04:59:56.461Z,90831.05
2023-03-26T05:02:26.257Z,90837.98
2023-03-26T05:04:57.402Z,90840.75
2023-03-26T05:07:28.628Z,90842.02
2023-03-26T05:09:58.234Z,90843.24
2023-03-26T05:12:49.841Z,90845.70
2023-03-26T05:15:30.708Z,90850.03
2023-03-26T05:17:58.926Z,90847.29
2023-03-26T05:20:31.555Z,90850.36
2023-03-26T05:23:00.044Z,90855.31
2023-03-26T05:25:35.030Z,90858.73
2023-03-26T05:28:04.630Z,90860.22
2023-03-26T05:30:55.982Z,90863.27
2023-03-26T05:33:26.380Z,90865.52
2023-03-26T05:36:07.222Z,90862.89
2023-03-26T05:38:35.915Z,90867.20
2023-03-26T05:41:08.534Z,90868.40
2023-03-26T05:43:38.025Z,90871.33
2023-03-26T05:46:16.027Z,90872.39
2023-03-26T05:48:44.518Z,90877.40
2023-03-26T05:51:12.790Z,90874.86
2023-03-26T05:53:44.166Z,90870.50
2023-03-26T05:56:50.401Z,90868.35
2023-03-26T05:59:37.688Z,90863.35
2023-03-26T06:02:24.952Z,90869.41
2023-03-26T06:05:16.077Z,90873.16
2023-03-26T06:07:58.180Z,90871.35
2023-03-26T06:10:32.762Z,90866.07
2023-03-26T06:13:01.108Z,90865.98
2023-03-26T06:15:29.449Z,90866.15
2023-03-26T06:18:02.528Z,90867.46
2023-03-26T06:20:49.596Z,90868.31
2023-03-26T06:23:26.004Z,90872.98
2023-03-26T06:26:17.371Z,90873.02
2023-03-26T06:28:45.603Z,90876.42
2023-03-26T06:31:32.469Z,90879.73
2023-03-26T06:34:19.756Z,90883.55
2023-03-26T06:36:49.024Z,90882.38
2023-03-26T06:39:17.364Z,90878.25
2023-03-26T06:41:53.686Z,90878.73
2023-03-26T06:44:40.432Z,90883.27
2023-03-26T06:47:27.614Z,90876.89
2023-03-26T06:50:28.510Z,90880.61
2023-03-26T06:52:56.848Z,90880.04
2023-03-26T06:55:45.578Z,90883.36
2023-03-26T06:58:32.123Z,90884.56
2023-03-26T07:01:19.009Z,90879.10
2023-03-26T07:04:05.968Z,90879.85
2023-03-26T07:06:53.320Z,90877.77
2023-03-26T07:09:40.167Z,90876.73
2023-03-26T07:12:31.539Z,90869.02
2023-03-26T07:15:20.135Z,90864.74
2023-03-26T07:18:04.803Z,90868.17
2023-03-26T07:20:36.173Z,90863.55
2023-03-26T07:23:04.974Z,90865.67
2023-03-26T07:25:54.489Z,90871.67
2023-03-26T07:29:04.919Z,90872.88
2023-03-26T07:32:03.080Z,90875.73
2023-03-26T07:35:06.111Z,90878.63
2023-03-26T07:38:21.200Z,90885.40
2023-03-26T07:41:30.373Z,90881.31
2023-03-26T07:45:03.443Z,90881.79
2023-03-26T07:47:45.385Z,90883.71
2023-03-26T07:50:23.823Z,90884.19
2023-03-26T07:53:30.450Z,90886.81
2023-03-26T07:56:38.101Z,90883.38
2023-03-26T07:59:37.502Z,90882.91
2023-03-26T08:02:50.664Z,90879.82
2023-03-26T08:06:26.392Z,90875.65
2023-03-26T08:09:23.827Z,90871.81
2023-03-26T08:12:40.906Z,90868.80
2023-03-26T08:15:18.249Z,90865.98
2023-03-26T08:17:59.822Z,90873.70
2023-03-26T08:20:31.131Z,90875.19
2023-03-26T08:23:09.478Z,90875.86
2023-03-26T08:25:54.186Z,90882.36
2023-03-26T08:28:39.326Z,90885.30
2023-03-26T08:31:11.316Z,90884.66
2023-03-26T08:33:41.357Z,90882.53
2023-03-26T08:36:10.285Z,90877.20
2023-03-26T08:38:38.448Z,90873.73
2023-03-26T08:41:12.557Z,90877.04
2023-03-26T08:44:13.858Z,90873.36
2023-03-26T08:46:57.424Z,90873.66
2023-03-26T08:49:58.559Z,90875.38
2023-03-26T08:52:54.804Z,90876.14
2023-03-26T08:55:38.384Z,90884.67
2023-03-26T08:58:22.020Z,90881.84
2023-03-26T09:01:32.183Z,90880.55
2023-03-26T09:04:31.563Z,90877.61
2023-03-26T09:07:18.240Z,90881.90
2023-03-26T09:10:24.664Z,90894.08
2023-03-26T09:12:58.801Z,90883.08
2023-03-26T09:16:06.576Z,90888.30
2023-03-26T09:18:53.779Z,90886.84
2023-03-26T09:21:59.892Z,90877.95
2023-03-26T09:24:34.104Z,90877.06
2023-03-26T09:27:37.010Z,90877.95
2023-03-26T09:30:39.755Z,90877.73
2023-03-26T09:33:20.070Z,90874.08
2023-03-26T09:35:52.257Z,90875.33
2023-03-26T09:38:20.539Z,90871.17
2023-03-26T09:41:16.517Z,90870.98
2023-03-26T09:44:02.787Z,90865.23
2023-03-26T09:46:36.842Z,90868.93
2023-03-26T09:49:32.313Z,90869.61
2023-03-26T09:52:05.931Z,90876.20
2023-03-26T09:54:48.577Z,90872.52
2023-03-26T09:57:27.181Z,90877.67
2023-03-26T10:00:15.977Z,90876.17
2023-03-26T10:03:06.379Z,90881.02
2023-03-26T10:05:53.504Z,90879.80
2023-03-26T10:08:56.627Z,90877.26
2023-03-26T10:11:43.208Z,90876.16
2023-03-26T10:14:26.189Z,90876.77
2023-03-26T10:16:57.148Z,90883.37
2023-03-26T10:20:09.720Z,90878.18
2023-03-26T10:22:59.275Z,90881.66
2023-03-26T10:26:05.276Z,90881.52
2023-03-26T10:29:12.094Z,90884.02
2023-03-26T10:31:43.970Z,90881.23
2023-03-26T10:34:28.919Z,90875.35
2023-03-26T10:37:07.809Z,90876.28
2023-03-26T10:39:39.793Z,90875.83
2023-03-26T10:42:16.316Z,90871.27
2023-03-26T10:45:12.872Z,90862.29
2023-03-26T10:48:08.132Z,90857.64
2023-03-26T10:51:08.435Z,90856.34
2023-03-26T10:53:39.595Z,90856.14
2023-03-26T10:56:18.641Z,90857.71
2023-03-26T10:58:49.547Z,90857.98
2023-03-26T11:01:32.864Z,90857.81
2023-03-26T11:04:34.951Z,90853.86
2023-03-26T11:07:25.365Z,90852.89
2023-03-26T11:10:05.819Z,90851.77
2023-03-26T11:12:52.942Z,90855.36
2023-03-26T11:15:43.594Z,90854.61
2023-03-26T11:18:32.929Z,90856.73
2023-03-26T11:21:28.488Z,90865.89
2023-03-26T11:24:06.742Z,90861.92
2023-03-26T11:26:55.857Z,90863.53
2023-03-26T11:29:46.254Z,90853.06
2023-03-26T11:32:21.277Z,90851.76
2023-03-26T11:34:58.423Z,90852.11
2023-03-26T11:37:42.156Z,90853.73
2023-03-26T11:40:34.720Z,90856.70
2023-03-26T11:43:07.564Z,90859.53
2023-03-26T11:45:38.215Z,90859.45
2023-03-26T11:48:32.572Z,90861.85
2023-03-26T11:51:06.214Z,90855.38
2023-03-26T11:53:40.604Z,90857.55
2023-03-26T11:56:15.467Z,90845.94
2023-03-26T11:58:48.374Z,90851.15
2023-03-26T12:01:22.891Z,90856.30
2023-03-26T12:04:13.524Z,90857.61
2023-03-26T12:06:59.912Z,90851.38
2023-03-26T12:09:28.151Z,90857.05
2023-03-26T12:12:01.838Z,90860.36
2023-03-26T12:14:34.110Z,90854.61
2023-03-26T12:17:14.492Z,90853.17
2023-03-26T12:19:45.521Z,90853.70
2023-03-26T12:22:47.966Z,90854.10
2023-03-26T12:25:25.279Z,90848.45
2023-03-26T12:28:19.949Z,90843.36
2023-03-26T12:30:59.077Z,90844.25
2023-03-26T12:33:30.417Z,90841.71
2023-03-26T12:36:00.756Z,90838.72
2023-03-26T12:38:33.409Z,90836.73
2023-03-26T12:42:36.641Z,90840.27
2023-03-26T12:44:46.701Z,90838.73
2023-03-26T12:47:57.319Z,90838.94
2023-03-26T12:51:28.891Z,90841.67
2023-03-26T12:54:15.328Z,90845.05
2023-03-26T12:57:21.042Z,90839.83
2023-03-26T12:59:58.180Z,90830.19
2023-03-26T13:02:41.437Z,90823.20
2023-03-26T13:05:30.072Z,90818.93
2023-03-26T13:08:16.943Z,90812.02
2023-03-26T13:11:11.610Z,90806.97
2023-03-26T13:13:48.887Z,90792.33
2023-03-26T13:16:36.824Z,90798.73
2023-03-26T13:19:27.406Z,90800.70
2023-03-26T13:22:27.170Z,90796.48
2023-03-26T13:25:11.111Z,90794.02
2023-03-26T13:27:39.216Z,90794.48
2023-03-26T13:30:27.706Z,90799.29
2023-03-26T13:33:07.959Z,90797.48
2023-03-26T13:36:14.439Z,90799.09
2023-03-26T13:38:59.312Z,90801.52
2023-03-26T13:41:47.579Z,90803.61
2023-03-26T13:44:32.485Z,90794.90
2023-03-26T13:47:07.440Z,90794.00
2023-03-26T13:49:48.509Z,90793.77
2023-03-26T13:52:22.688Z,90793.85
2023-03-26T13:55:19.130Z,90799.42
2023-03-26T13:57:57.011Z,90792.27
2023-03-26T14:00:57.557Z,90792.23
2023-03-26T14:03:29.900Z,90794.23
2023-03-26T14:06:03.843Z,90789.52
2023-03-26T14:08:51.714Z,90792.54
2023-03-26T14:11:31.956Z,90787.97
2023-03-26T14:14:29.078Z,90784.95
2023-03-26T14:17:04.537Z,90780.47
2023-03-26T14:19:53.880Z,90780.23
2023-03-26T14:22:44.072Z,90779.02
2023-03-26T14:25:37.725Z,90773.70
2023-03-26T14:28:21.318Z,90774.23
2023-03-26T14:31:04.182Z,90764.83
2023-03-26T14:33:47.766Z,90761.65
2023-03-26T14:36:49.954Z,90763.27
2023-03-26T14:39:27.711Z,90762.21
2023-03-26T14:42:05.895Z,90762.52
2023-03-26T14:44:47.809Z,90763.42
2023-03-26T14:47:21.877Z,90765.36
2023-03-26T14:50:36.255Z,90761.94
2023-03-26T14:53:16.316Z,90760.80
2023-03-26T14:56:22.949Z,90759.14
2023-03-26T14:58:53.929Z,90762.74
2023-03-26T15:01:26.786Z,90759.98
2023-03-26T15:04:17.012Z,90757.95
2023-03-26T15:07:04.185Z,90757.47
2023-03-26T15:10:09.646Z,90755.96
2023-03-26T15:13:16.358Z,90755.27
2023-03-26T15:16:03.648Z,90754.98
2023-03-26T15:19:00.170Z,90756.02
2023-03-26T15:22:18.485Z,90753.71
2023-03-26T15:25:21.990Z,90755.75
2023-03-26T15:28:09.359Z,90753.54
2023-03-26T15:31:26.437Z,90756.90
2023-03-26T15:34:20.204Z,90752.16
2023-03-26T15:37:22.511Z,90748.86
2023-03-26T15:40:19.325Z,90747.52
2023-03-26T15:43:08.809Z,90749.73
2023-03-26T15:45:42.205Z,90745.23
2023-03-26T15:48:13.227Z,90744.17
2023-03-26T15:51:03.618Z,90742.79
2023-03-26T15:53:35.041Z,90745.55
2023-03-26T15:56:40.459Z,90742.85
2023-03-26T15:59:41.941Z,90751.71
2023-03-26T16:02:55.233Z,90752.13
2023-03-26T16:05:56.354Z,90754.48
2023-03-26T16:08:53.337Z,90757.27
2023-03-26T16:11:45.254Z,90758.99
2023-03-26T16:14:34.554Z,90762.04
2023-03-26T16:17:08.090Z,90764.35
2023-03-26T16:19:50.512Z,90768.72
2023-03-26T16:22:53.453Z,90764.96
2023-03-26T16:25:34.859Z,90759.41
2023-03-26T16:28:09.241Z,90766.20
2023-03-26T16:30:38.492Z,90766.40
2023-03-26T16:33:15.785Z,90769.91
2023-03-26T16:36:06.606Z,90779.43
2023-03-26T16:39:04.888Z,90782.29
2023-03-26T16:41:34.335Z,90780.20
2023-03-26T16:44:16.831Z,90779.73
2023-03-26T16:47:00.295Z,90774.11
2023-03-26T16:49:46.902Z,90777.85
2023-03-26T16:52:42.919Z,90781.67
2023-03-26T16:55:23.081Z,90784.92
2023-03-26T16:58:11.359Z,90790.41
2023-03-26T17:01:00.421Z,90791.35
2023-03-26T17:03:45.043Z,90800.04
2023-03-26T17:06:20.971Z,90797.11
2023-03-26T17:09:01.418Z,90797.61
2023-03-26T17:12:01.902Z,90801.93
2023-03-26T17:14:51.376Z,90806.45
2023-03-26T17:17:25.364Z,90809.23
2023-03-26T17:20:11.832Z,90814.97
2023-03-26T17:23:02.662Z,90810.68
2023-03-26T17:25:54.062Z,90816.46
2023-03-26T17:29:00.472Z,90817.30
2023-03-26T17:31:51.203Z,90816.66
2023-03-26T17:34:40.116Z,90816.61
2023-03-26T17:37:31.435Z,90818.91
2023-03-26T17:40:08.788Z,90817.49
2023-03-26T17:42:37.753Z,90818.60
2023-03-26T17:45:17.725Z,90816.06
2023-03-26T17:47:53.088Z,90816.89
2023-03-26T17:50:26.668Z,90820.11
2023-03-26T17:52:58.381Z,90813.61
2023-03-26T17:55:33.226Z,90817.01
2023-03-26T17:58:04.278Z,90815.34
2023-03-26T18:00:42.504Z,90821.95
2023-03-26T18:03:23.885Z,90827.91
2023-03-26T18:05:57.621Z,90828.58
2023-03-26T18:08:58.661Z,90829.89
2023-03-26T18:11:26.799Z,90830.52
2023-03-26T18:14:06.930Z,90835.86
2023-03-26T18:16:47.638Z,90827.64
2023-03-26T18:19:22.705Z,90835.59
2023-03-26T18:21:53.824Z,90832.95
2023-03-26T18:24:46.500Z,90837.84
2023-03-26T18:27:19.210Z,90842.52
2023-03-26T18:30:26.411Z,90845.69
2023-03-26T18:33:12.757Z,90847.38
2023-03-26T18:35:49.921Z,90857.52
2023-03-26T18:38:35.943Z,90855.25
2023-03-26T18:41:11.263Z,90866.64
2023-03-26T18:43:44.200Z,90862.36
2023-03-26T18:46:14.726Z,90862.12
2023-03-26T18:48:44.322Z,90858.71
2023-03-26T18:51:22.543Z,90853.06
2023-03-26T18:53:55.486Z,90848.91
2023-03-26T18:56:35.449Z,90849.36
2023-03-26T18:59:12.195Z,90850.27
2023-03-26T19:01:47.237Z,90849.76
2023-03-26T19:04:16.435Z,90844.77
2023-03-26T19:06:46.333Z,90847.02
2023-03-26T19:09:30.288Z,90848.67
2023-03-26T19:12:09.593Z,90853.32
2023-03-26T19:14:58.125Z,90848.20
2023-03-26T19:17:31.615Z,90853.09
2023-03-26T19:20:00.774Z,90852.98
2023-03-26T19:22:30.641Z,90848.83
2023-03-26T19:25:02.835Z,90844.30
2023-03-26T19:27:31.415Z,90844.31
2023-03-26T19:29:59.810Z,90844.31
2023-03-26T19:32:34.781Z,90841.11
2023-03-26T19:35:04.716Z,90838.66
2023-03-26T19:37:33.320Z,90837.47
2023-03-26T19:40:14.226Z,90833.90
2023-03-26T19:42:44.773Z,90830.34
2023-03-26T19:45:20.515Z,90824.98
2023-03-26T19:48:00.133Z,90825.14
2023-03-26T19:50:35.481Z,90829.25
2023-03-26T19:53:19.233Z,90833.29
2023-03-26T19:55:59.572Z,90834.41
2023-03-26T19:58:27.849Z,90837.90
2023-03-26T20:00:56.712Z,90836.71
2023-03-26T20:03:36.948Z,90830.91
2023-03-26T20:06:05.958Z,90830.77
2023-03-26T20:08:34.199Z,90830.74
2023-03-26T20:11:02.472Z,90822.34
2023-03-26T20:13:31.299Z,90821.35
2023-03-26T20:16:29.904Z,90820.12
2023-03-26T20:19:02.490Z,90815.63
2023-03-26T20:21:34.786Z,90810.83
2023-03-26T20:24:11.019Z,90812.58
2023-03-26T20:26:39.333Z,90807.92
2023-03-26T20:29:07.944Z,90807.97
2023-03-26T20:31:36.361Z,90806.60
2023-03-26T20:34:10.276Z,90803.05
2023-03-26T20:36:39.566Z,90800.24
2023-03-26T20:39:08.329Z,90801.00
2023-03-26T20:41:46.096Z,90800.93
2023-03-26T20:44:18.137Z,90803.85
2023-03-26T20:46:48.380Z,90799.23
2023-03-26T20:49:18.144Z,90797.84
2023-03-26T20:51:47.005Z,90790.59
2023-03-26T20:54:21.392Z,90784.74
2023-03-26T20:56:50.402Z,90784.00
2023-03-26T20:59:26.690Z,90789.53
2023-03-26T21:01:57.762Z,90787.02
2023-03-26T21:04:26.927Z,90791.23
2023-03-26T21:07:06.594Z,90789.25
2023-03-26T21:09:39.938Z,90787.13
2023-03-26T21:12:16.864Z,90779.92
2023-03-26T21:14:45.283Z,90775.94
2023-03-26T21:17:19.141Z,90779.55
2023-03-26T21:19:48.242Z,90778.02
2023-03-26T21:22:38.609Z,90776.97
2023-03-26T21:25:35.938Z,90772.27
2023-03-26T21:28:26.172Z,90767.36
2023-03-26T21:30:59.409Z,90770.30
2023-03-26T21:33:28.599Z,90767.98
2023-03-26T21:36:00.004Z,90760.77
2023-03-26T21:38:32.555Z,90759.01
2023-03-26T21:41:01.711Z,90759.86
2023-03-26T21:43:30.664Z,90757.31
2023-03-26T21:45:59.342Z,90755.95
2023-03-26T21:48:29.127Z,90758.83
2023-03-26T21:51:02.549Z,90762.52
2023-03-26T21:53:31.971Z,90764.08
2023-03-26T21:56:21.777Z,90767.39
2023-03-26T21:59:36.871Z,90768.47
2023-03-26T22:02:17.992Z,90768.48
2023-03-26T22:04:52.200Z,90767.02
2023-03-26T22:07:39.299Z,90764.20
2023-03-26T22:10:08.200Z,90764.88
2023-03-26T22:12:36.680Z,90762.73
2023-03-26T22:15:05.403Z,90759.30
2023-03-26T22:17:33.728Z,90759.25
2023-03-26T22:20:01.917Z,90750.92
2023-03-26T22:22:30.165Z,90751.84
2023-03-26T22:24:58.471Z,90747.61
2023-03-26T22:27:27.373Z,90750.97
2023-03-26T22:29:55.519Z,90759.00
2023-03-26T22:32:23.659Z,90758.41
2023-03-26T22:34:53.225Z,90755.15
2023-03-26T22:37:23.537Z,90749.65
2023-03-26T22:39:52.036Z,90749.42
2023-03-26T22:42:20.798Z,90749.35
2023-03-26T22:44:49.061Z,90748.02
2023-03-26T22:47:17.569Z,90746.67
2023-03-26T22:49:46.002Z,90749.20
2023-03-26T22:52:14.171Z,90746.83
2023-03-26T22:54:42.389Z,90748.83
2023-03-26T22:57:11.256Z,90747.57
2023-03-26T22:59:39.434Z,90747.42
2023-03-26T23:02:09.994Z,90747.64
2023-03-26T23:04:38.859Z,90744.82
2023-03-26T23:07:07.133Z,90747.88
2023-03-26T23:09:36.774Z,90742.52
2023-03-26T23:12:05.287Z,90736.77
2023-03-26T23:14:33.485Z,90731.45
2023-03-26T23:17:01.736Z,90730.85
2023-03-26T23:19:30.304Z,90729.52
2023-03-26T23:21:58.527Z,90727.05
2023-03-26T23:24:26.786Z,90718.80
2023-03-26T23:26:54.944Z,90721.79
2023-03-26T23:29:23.220Z,90717.54
2023-03-26T23:31:53.075Z,90718.29
2023-03-26T23:34:21.605Z,90707.95
2023-03-26T23:36:50.078Z,90700.98
2023-03-26T23:39:19.459Z,90702.23
2023-03-26T23:41:48.234Z,90693.61
2023-03-26T23:44:17.264Z,90692.13
2023-03-26T23:46:45.530Z,90689.30
2023-03-26T23:49:13.789Z,90681.51
2023-03-26T23:51:42.386Z,90674.59
2023-03-26T23:54:11.735Z,90675.19
2023-03-26T23:56:39.930Z,90674.15
2023-03-26T23:59:08.576Z,90664.77
